createdAt,value
2022-12-01T00:00:56.451Z,3.38
2022-12-01T00:04:00.091Z,3.39
2022-12-01T00:07:03.694Z,3.38
2022-12-01T00:10:29.317Z,3.34
2022-12-01T00:13:35.009Z,3.37
2022-12-01T00:16:40.637Z,3.34
2022-12-01T00:19:44.238Z,3.35
2022-12-01T00:22:49.772Z,3.34
2022-12-01T00:25:53.368Z,3.32
2022-12-01T00:29:00.512Z,3.31
2022-12-01T00:32:04.131Z,3.31
2022-12-01T00:35:09.083Z,3.35
2022-12-01T00:38:12.633Z,3.36
2022-12-01T00:41:16.332Z,3.34
2022-12-01T00:44:21.409Z,3.36
2022-12-01T00:47:25.178Z,3.33
2022-12-01T00:50:28.752Z,3.32
2022-12-01T00:53:32.530Z,3.36
2022-12-01T00:56:36.170Z,3.31
2022-12-01T00:59:41.254Z,3.31
2022-12-01T01:02:45.019Z,3.33
2022-12-01T01:05:48.675Z,3.26
2022-12-01T01:08:52.349Z,3.28
2022-12-01T01:11:56.306Z,3.30
2022-12-01T01:15:01.291Z,3.23
2022-12-01T01:18:05.894Z,3.24
2022-12-01T01:21:14.515Z,3.26
2022-12-01T01:24:18.213Z,3.30
2022-12-01T01:27:21.833Z,3.30
2022-12-01T01:30:26.981Z,3.35
2022-12-01T01:33:31.886Z,3.38
2022-12-01T01:36:35.824Z,3.30
2022-12-01T01:39:39.475Z,3.28
2022-12-01T01:42:43.103Z,3.30
2022-12-01T01:45:48.169Z,3.30
2022-12-01T01:48:56.118Z,3.35
2022-12-01T01:52:00.101Z,3.28
2022-12-01T01:55:04.065Z,3.30
2022-12-01T01:58:12.110Z,3.31
2022-12-01T02:01:17.370Z,3.32
2022-12-01T02:04:22.123Z,3.29
2022-12-01T02:07:26.504Z,3.34
2022-12-01T02:10:46.093Z,3.38
2022-12-01T02:14:05.921Z,3.39
2022-12-01T02:17:27.853Z,3.39
2022-12-01T02:21:25.083Z,3.34
2022-12-01T02:25:11.770Z,3.38
2022-12-01T02:28:54.670Z,3.46
2022-12-01T02:32:12.917Z,3.31
2022-12-01T02:35:27.991Z,3.31
2022-12-01T02:38:42.134Z,3.31
2022-12-01T02:41:53.803Z,3.25
2022-12-01T02:44:59.864Z,3.24
2022-12-01T02:48:12.413Z,3.27
2022-12-01T02:51:21.973Z,3.26
2022-12-01T02:54:29.750Z,3.22
2022-12-01T02:57:33.502Z,3.22
2022-12-01T03:00:37.688Z,3.21
2022-12-01T03:04:12.309Z,3.23
2022-12-01T03:07:47.006Z,3.20
2022-12-01T03:10:56.274Z,3.20
2022-12-01T03:14:16.147Z,3.12
2022-12-01T03:17:36.674Z,3.17
2022-12-01T03:20:53.258Z,3.17
2022-12-01T03:24:03.172Z,3.17
2022-12-01T03:27:09.857Z,3.11
2022-12-01T03:30:16.659Z,3.12
2022-12-01T03:33:31.978Z,3.10
2022-12-01T03:36:43.775Z,3.11
2022-12-01T03:39:49.736Z,3.12
2022-12-01T03:42:59.007Z,3.12
2022-12-01T03:46:11.740Z,3.13
2022-12-01T03:49:18.887Z,3.16
2022-12-01T03:52:38.194Z,3.16
2022-12-01T03:55:47.931Z,3.16
2022-12-01T03:58:58.144Z,3.12
2022-12-01T04:02:01.895Z,3.17
2022-12-01T04:05:06.893Z,3.14
2022-12-01T04:08:11.938Z,3.15
2022-12-01T04:11:33.144Z,3.12
2022-12-01T04:14:36.832Z,3.17
2022-12-01T04:17:43.313Z,3.14
2022-12-01T04:20:47.602Z,3.09
2022-12-01T04:24:01.684Z,3.15
2022-12-01T04:27:05.403Z,3.12
2022-12-01T04:30:11.048Z,3.07
2022-12-01T04:33:14.635Z,3.06
2022-12-01T04:36:18.291Z,3.12
2022-12-01T04:39:23.561Z,3.13
2022-12-01T04:42:27.226Z,3.14
2022-12-01T04:45:30.866Z,3.07
2022-12-01T04:48:35.987Z,3.11
2022-12-01T04:51:39.702Z,3.09
2022-12-01T04:54:44.775Z,3.03
2022-12-01T04:57:48.643Z,3.06
2022-12-01T05:00:52.277Z,3.08
2022-12-01T05:03:56.199Z,3.09
2022-12-01T05:07:00.194Z,3.11
2022-12-01T05:10:05.830Z,3.13
2022-12-01T05:13:10.267Z,3.13
2022-12-01T05:16:16.706Z,3.15
2022-12-01T05:19:37.664Z,3.15
2022-12-01T05:23:04.269Z,3.18
2022-12-01T05:26:09.218Z,3.12
2022-12-01T05:29:13.851Z,3.13
2022-12-01T05:32:17.634Z,3.15
2022-12-01T05:35:21.348Z,3.17
2022-12-01T05:38:25.155Z,3.17
2022-12-01T05:41:30.314Z,3.18
2022-12-01T05:44:33.918Z,3.17
2022-12-01T05:47:37.521Z,3.18
2022-12-01T05:50:41.739Z,3.16
2022-12-01T05:53:46.451Z,3.19
2022-12-01T05:56:51.401Z,3.14
2022-12-01T06:00:06.897Z,3.09
2022-12-01T06:03:10.502Z,3.13
2022-12-01T06:06:14.626Z,3.07
2022-12-01T06:09:18.389Z,3.13
2022-12-01T06:12:23.485Z,3.05
2022-12-01T06:15:27.853Z,3.04
2022-12-01T06:18:34.004Z,3.06
2022-12-01T06:21:37.727Z,3.12
2022-12-01T06:24:41.532Z,3.11
2022-12-01T06:27:47.066Z,3.02
2022-12-01T06:30:50.717Z,3.09
2022-12-01T06:33:54.475Z,3.06
2022-12-01T06:36:58.106Z,3.00
2022-12-01T06:40:01.745Z,3.09
2022-12-01T06:43:07.485Z,3.08
2022-12-01T06:46:11.231Z,3.05
2022-12-01T06:49:16.247Z,3.02
2022-12-01T06:52:19.929Z,3.04
2022-12-01T06:55:23.661Z,3.03
2022-12-01T06:58:29.119Z,2.99
2022-12-01T07:01:33.105Z,2.98
2022-12-01T07:04:36.727Z,2.96
2022-12-01T07:07:40.994Z,3.00
2022-12-01T07:10:44.902Z,2.94
2022-12-01T07:13:50.995Z,2.98
2022-12-01T07:16:58.058Z,2.99
2022-12-01T07:20:01.930Z,2.90
2022-12-01T07:23:05.607Z,2.94
2022-12-01T07:26:12.683Z,2.89
2022-12-01T07:29:17.841Z,2.89
2022-12-01T07:32:21.433Z,2.96
2022-12-01T07:35:25.140Z,2.95
2022-12-01T07:38:30.360Z,2.96
2022-12-01T07:41:33.942Z,2.89
2022-12-01T07:44:38.927Z,2.89
2022-12-01T07:47:42.587Z,2.94
2022-12-01T07:50:46.208Z,2.96
2022-12-01T07:53:51.640Z,2.99
2022-12-01T07:56:55.615Z,2.90
2022-12-01T08:00:00.610Z,2.87
2022-12-01T08:03:04.291Z,2.93
2022-12-01T08:06:09.569Z,2.95
2022-12-01T08:09:13.612Z,2.99
2022-12-01T08:12:17.291Z,2.97
2022-12-01T08:15:22.392Z,2.97
2022-12-01T08:18:26.356Z,2.95
2022-12-01T08:21:30.138Z,2.90
2022-12-01T08:24:33.901Z,2.93
2022-12-01T08:27:37.906Z,2.86
2022-12-01T08:30:42.927Z,2.91
2022-12-01T08:33:47.170Z,2.98
2022-12-01T08:36:50.850Z,2.84
2022-12-01T08:39:54.445Z,2.90
2022-12-01T08:42:58.918Z,2.96
2022-12-01T08:46:20.821Z,2.87
2022-12-01T08:49:24.664Z,2.89
2022-12-01T08:52:34.126Z,2.80
2022-12-01T08:55:38.193Z,2.83
2022-12-01T08:58:41.935Z,2.82
2022-12-01T09:01:57.476Z,2.89
2022-12-01T09:05:01.398Z,2.88
2022-12-01T09:08:22.717Z,2.95
2022-12-01T09:11:26.488Z,2.95
2022-12-01T09:14:30.250Z,2.95
2022-12-01T09:17:35.232Z,3.00
2022-12-01T09:20:38.900Z,2.99
2022-12-01T09:23:42.918Z,3.04
2022-12-01T09:26:46.623Z,3.02
2022-12-01T09:29:50.553Z,2.96
2022-12-01T09:32:55.740Z,3.04
2022-12-01T09:36:00.908Z,2.95
2022-12-01T09:39:05.992Z,2.97
2022-12-01T09:42:16.189Z,2.88
2022-12-01T09:45:27.996Z,2.95
2022-12-01T09:48:42.545Z,2.94
2022-12-01T09:51:46.656Z,2.87
2022-12-01T09:54:50.908Z,3.02
2022-12-01T09:57:57.913Z,3.03
2022-12-01T10:01:01.883Z,3.06
2022-12-01T10:04:16.114Z,3.08
2022-12-01T10:07:26.596Z,3.09
2022-12-01T10:10:37.082Z,3.15
2022-12-01T10:13:43.660Z,3.06
2022-12-01T10:17:01.898Z,3.02
2022-12-01T10:20:17.929Z,3.07
2022-12-01T10:23:39.961Z,3.07
2022-12-01T10:26:54.864Z,3.10
2022-12-01T10:30:08.166Z,3.00
2022-12-01T10:33:24.286Z,2.95
2022-12-01T10:36:33.009Z,3.03
2022-12-01T10:39:42.015Z,3.07
2022-12-01T10:42:48.006Z,3.08
2022-12-01T10:45:52.303Z,3.04
2022-12-01T10:48:59.471Z,3.05
2022-12-01T10:52:04.610Z,3.05
2022-12-01T10:55:27.998Z,3.11
2022-12-01T10:58:35.320Z,3.15
2022-12-01T11:01:39.215Z,3.30
2022-12-01T11:04:51.905Z,3.31
2022-12-01T11:07:57.398Z,3.16
2022-12-01T11:11:01.151Z,3.15
2022-12-01T11:14:17.916Z,3.28
2022-12-01T11:17:38.270Z,3.25
2022-12-01T11:20:42.844Z,3.13
2022-12-01T11:23:50.553Z,3.23
2022-12-01T11:26:54.559Z,3.19
2022-12-01T11:30:04.876Z,3.40
2022-12-01T11:33:08.691Z,3.60
2022-12-01T11:36:22.094Z,3.65
2022-12-01T11:39:32.464Z,3.58
2022-12-01T11:42:37.760Z,3.63
2022-12-01T11:45:42.523Z,3.77
2022-12-01T11:49:00.406Z,3.61
2022-12-01T11:52:23.836Z,3.46
2022-12-01T11:55:31.946Z,3.56
2022-12-01T11:58:35.626Z,3.43
2022-12-01T12:01:58.548Z,3.53
2022-12-01T12:05:57.645Z,3.60
2022-12-01T12:09:47.503Z,3.46
2022-12-01T12:13:10.555Z,3.40
2022-12-01T12:16:33.742Z,3.42
2022-12-01T12:20:08.619Z,3.33
2022-12-01T12:23:33.121Z,3.32
2022-12-01T12:26:45.927Z,3.39
2022-12-01T12:30:18.963Z,3.31
2022-12-01T12:33:50.600Z,3.46
2022-12-01T12:37:11.162Z,3.41
2022-12-01T12:40:42.246Z,3.28
2022-12-01T12:43:58.794Z,3.24
2022-12-01T12:47:23.596Z,3.36
2022-12-01T12:50:35.898Z,3.41
2022-12-01T12:53:50.275Z,3.40
2022-12-01T12:57:01.894Z,3.23
2022-12-01T13:00:15.560Z,3.39
2022-12-01T13:03:33.786Z,3.30
2022-12-01T13:06:44.881Z,3.21
2022-12-01T13:09:55.350Z,3.13
2022-12-01T13:13:13.955Z,3.03
2022-12-01T13:16:24.274Z,3.08
2022-12-01T13:19:34.824Z,3.03
2022-12-01T13:22:39.172Z,3.07
2022-12-01T13:25:45.487Z,3.13
2022-12-01T13:28:55.655Z,3.18
2022-12-01T13:31:59.724Z,3.19
2022-12-01T13:35:22.016Z,3.04
2022-12-01T13:38:31.162Z,2.98
2022-12-01T13:41:38.608Z,2.98
2022-12-01T13:44:45.949Z,2.95
2022-12-01T13:47:55.903Z,2.83
2022-12-01T13:51:03.954Z,2.90
2022-12-01T13:54:31.616Z,2.86
2022-12-01T13:57:38.238Z,2.82
2022-12-01T14:00:43.188Z,2.86
2022-12-01T14:03:57.071Z,2.70
2022-12-01T14:07:35.645Z,2.75
2022-12-01T14:10:39.711Z,2.76
2022-12-01T14:13:54.759Z,2.71
2022-12-01T14:17:02.639Z,2.67
2022-12-01T14:20:23.049Z,2.71
2022-12-01T14:23:33.349Z,2.57
2022-12-01T14:26:46.533Z,2.60
2022-12-01T14:29:50.171Z,2.62
2022-12-01T14:33:14.001Z,2.53
2022-12-01T14:36:38.052Z,2.58
2022-12-01T14:39:47.557Z,2.56
2022-12-01T14:43:13.781Z,2.44
2022-12-01T14:46:25.676Z,2.36
2022-12-01T14:49:36.351Z,2.40
2022-12-01T14:52:44.585Z,2.42
2022-12-01T14:55:56.410Z,2.40
2022-12-01T14:59:02.799Z,2.47
2022-12-01T15:02:12.312Z,2.46
2022-12-01T15:05:20.030Z,2.45
2022-12-01T15:08:41.953Z,2.40
2022-12-01T15:11:56.973Z,2.43
2022-12-01T15:15:01.000Z,2.45
2022-12-01T15:18:24.243Z,2.34
2022-12-01T15:21:31.785Z,2.38
2022-12-01T15:24:35.818Z,2.42
2022-12-01T15:27:41.053Z,2.43
2022-12-01T15:30:49.627Z,2.38
2022-12-01T15:33:55.522Z,2.49
2022-12-01T15:37:01.114Z,2.43
2022-12-01T15:43:41.319Z,2.36
2022-12-01T15:46:45.604Z,2.38
2022-12-01T15:49:50.778Z,2.44
2022-12-01T15:52:54.486Z,2.46
2022-12-01T15:55:59.835Z,2.37
2022-12-01T15:59:28.494Z,2.34
2022-12-01T16:02:34.593Z,2.36
2022-12-01T16:05:38.565Z,2.30
2022-12-01T16:08:42.444Z,2.16
2022-12-01T16:12:25.150Z,1.97
2022-12-01T16:15:30.164Z,1.86
2022-12-01T16:18:35.334Z,1.86
2022-12-01T16:21:47.985Z,1.80
2022-12-01T16:24:55.950Z,1.75
2022-12-01T16:27:59.922Z,1.79
2022-12-01T16:31:09.136Z,1.76
2022-12-01T16:34:44.519Z,1.76
2022-12-01T16:37:44.218Z,1.64
2022-12-01T16:40:49.938Z,1.74
2022-12-01T16:44:20.341Z,1.58
2022-12-01T16:47:21.946Z,1.58
2022-12-01T16:50:25.608Z,1.52
2022-12-01T16:53:29.250Z,1.58
2022-12-01T16:56:32.956Z,1.56
2022-12-01T16:59:36.589Z,1.59
2022-12-01T17:02:41.630Z,1.59
2022-12-01T17:05:45.299Z,1.60
2022-12-01T17:08:50.320Z,1.60
2022-12-01T17:11:56.269Z,1.59
2022-12-01T17:14:59.879Z,1.41
2022-12-01T17:18:05.057Z,1.41
2022-12-01T17:21:11.135Z,1.40
2022-12-01T17:24:18.822Z,1.36
2022-12-01T17:27:23.239Z,1.42
2022-12-01T17:30:27.340Z,1.38
2022-12-01T17:33:34.693Z,1.27
2022-12-01T17:36:38.589Z,1.32
2022-12-01T17:39:42.347Z,1.33
2022-12-01T17:42:50.469Z,1.28
2022-12-01T17:45:54.603Z,1.22
2022-12-01T17:48:59.923Z,1.17
2022-12-01T17:52:03.689Z,1.19
2022-12-01T17:55:08.903Z,1.30
2022-12-01T17:58:12.658Z,1.31
2022-12-01T18:01:21.390Z,1.29
2022-12-01T18:04:29.282Z,1.25
2022-12-01T18:07:33.020Z,1.26
2022-12-01T18:10:36.684Z,1.26
2022-12-01T18:13:42.442Z,1.21
2022-12-01T18:16:47.015Z,1.15
2022-12-01T18:19:52.084Z,1.11
2022-12-01T18:22:55.749Z,1.12
2022-12-01T18:26:05.130Z,1.17
2022-12-01T18:29:16.109Z,1.18
2022-12-01T18:32:19.790Z,1.16
2022-12-01T18:35:30.249Z,1.19
2022-12-01T18:38:35.287Z,1.18
2022-12-01T18:41:39.270Z,1.14
2022-12-01T18:44:43.186Z,1.13
2022-12-01T18:47:46.866Z,1.16
2022-12-01T18:50:57.885Z,1.15
2022-12-01T18:54:05.923Z,1.16
2022-12-01T18:57:09.682Z,1.10
2022-12-01T19:00:15.529Z,1.10
2022-12-01T19:03:22.221Z,1.14
2022-12-01T19:06:38.949Z,1.17
2022-12-01T19:09:42.894Z,1.14
2022-12-01T19:12:49.400Z,1.13
2022-12-01T19:15:53.468Z,1.11
2022-12-01T19:18:57.351Z,1.08
2022-12-01T19:22:02.629Z,1.10
2022-12-01T19:25:08.033Z,1.12
2022-12-01T19:28:11.638Z,1.18
2022-12-01T19:31:17.766Z,1.19
2022-12-01T19:34:21.663Z,1.18
2022-12-01T19:37:26.850Z,1.14
2022-12-01T19:40:30.927Z,1.14
2022-12-01T19:43:36.090Z,1.19
2022-12-01T19:46:39.855Z,1.19
2022-12-01T19:49:44.363Z,1.21
2022-12-01T19:52:51.800Z,1.20
2022-12-01T19:56:03.234Z,1.14
2022-12-01T19:59:08.035Z,1.14
2022-12-01T20:02:12.639Z,1.15
2022-12-01T20:05:16.887Z,1.15
2022-12-01T20:08:21.942Z,1.22
2022-12-01T20:11:26.394Z,1.22
2022-12-01T20:14:30.268Z,1.16
2022-12-01T20:17:37.364Z,1.20
2022-12-01T20:20:40.994Z,1.26
2022-12-01T20:23:48.566Z,1.22
2022-12-01T20:26:56.729Z,1.21
2022-12-01T20:30:00.506Z,1.12
2022-12-01T20:33:04.523Z,1.11
2022-12-01T20:36:09.586Z,1.14
2022-12-01T20:39:16.264Z,1.12
2022-12-01T20:42:22.291Z,1.11
2022-12-01T20:45:46.204Z,1.12
2022-12-01T20:48:50.136Z,1.16
2022-12-01T20:51:53.923Z,1.10
2022-12-01T20:54:58.984Z,1.10
2022-12-01T20:58:02.978Z,1.12
2022-12-01T21:01:11.232Z,1.09
2022-12-01T21:04:15.225Z,1.08
2022-12-01T21:07:19.921Z,1.12
2022-12-01T21:10:25.675Z,1.07
2022-12-01T21:13:42.361Z,1.14
2022-12-01T21:16:49.530Z,1.15
2022-12-01T21:20:01.850Z,1.07
2022-12-01T21:23:13.058Z,1.07
2022-12-01T21:26:19.117Z,1.09
2022-12-01T21:29:25.959Z,1.07
2022-12-01T21:32:37.709Z,1.10
2022-12-01T21:35:44.415Z,1.09
2022-12-01T21:38:50.694Z,1.07
2022-12-01T21:42:00.982Z,1.00
2022-12-01T21:45:18.830Z,1.07
2022-12-01T21:48:24.193Z,1.05
2022-12-01T21:51:28.009Z,1.11
2022-12-01T21:54:32.416Z,1.08
2022-12-01T21:57:44.816Z,1.07
2022-12-01T22:00:48.897Z,1.05
2022-12-01T22:03:54.177Z,1.02
2022-12-01T22:07:00.946Z,1.01
2022-12-01T22:10:55.304Z,1.03
2022-12-01T22:14:14.057Z,1.07
2022-12-01T22:17:22.002Z,1.01
2022-12-01T22:20:25.853Z,1.02
2022-12-01T22:23:34.813Z,1.01
2022-12-01T22:26:41.134Z,1.07
2022-12-01T22:29:49.128Z,1.06
2022-12-01T22:32:58.143Z,1.05
2022-12-01T22:36:02.095Z,1.07
2022-12-01T22:39:26.930Z,1.11
2022-12-01T22:42:35.978Z,1.06
2022-12-01T22:45:41.114Z,1.08
2022-12-01T22:48:47.811Z,1.15
2022-12-01T22:51:53.974Z,1.13
2022-12-01T22:54:57.713Z,1.16
2022-12-01T22:58:02.050Z,1.17
2022-12-01T23:01:23.619Z,1.07
2022-12-01T23:04:31.282Z,1.07
2022-12-01T23:07:37.493Z,1.02
2022-12-01T23:10:42.824Z,1.00
2022-12-01T23:13:46.374Z,1.04
2022-12-01T23:16:57.687Z,1.11
2022-12-01T23:20:27.021Z,1.23
2022-12-01T23:23:33.484Z,1.16
2022-12-01T23:26:37.245Z,1.09
2022-12-01T23:29:40.999Z,1.08
2022-12-01T23:32:49.224Z,1.01
2022-12-01T23:35:57.233Z,0.98
2022-12-01T23:39:08.007Z,1.02
2022-12-01T23:42:14.241Z,1.13
2022-12-01T23:45:22.725Z,1.02
2022-12-01T23:48:36.035Z,0.96
2022-12-01T23:51:45.427Z,1.02
2022-12-01T23:54:49.897Z,1.00
2022-12-01T23:57:55.326Z,0.98
